Helvetia, West Virginia
Current Conditions -  °F | °C
As of 10:55 PM on Sunday 23 Nov 2014 (Local Time) from KW22 Reporting Station
Scattered Clouds Scattered Clouds  
Wind Chill: 61°   Ceiling: Unl
Heat Index: 61°   Visibility: 10mi
Dew Point: 52°   Wind: 16mph
Humidity: 72%   Direction: 150°SSE
Pressure: 29.51"   Gusts: 24mph
Location:  38.71°N, 80.2°W
Report Text: KW22 240355Z AUTO 15014G21KT 10SM FEW065 SCT075 SCT090 16/11 A2951 RMK AO2
Loading
Personal Weather Stations






























Interactive Weather Map New forecast layout! Learn more

10-Day Weather Forecast

Advertisements
Track Severe Weather on mobile